首页
METAR-TAF:

METAR-TAF

机场 :

Homestead, 佛罗里达州, 美国

纬度: 25-29N, 经度: 080-23W, 海拔: 2米

当前天气观测

该预报发布于1小时和6分钟前的00:55 UTC
风速11节,风向西转西北
温度 29°C
湿度 62%
气压 1011 hPa
能見度: 16.1公里
天空无云

METAR: KHST 210055Z AUTO 30011KT 10SM CLR 29/21 A2986 RMK AO2 SLP115 T02940205

时间: 22:01 (02:01 UTC)

预报

预报有效从20日的 19点(UTC)到 22日的 01点(UTC)
风速12节,风向西转西南,有时为20节阵风
能见度10公里或以上
少量云层高于3500英尺
散云层高于13000英尺
散云层高于20000英尺
附近有阵雨
成为
从 21日的 00点(UTC)到 21日的 01点(UTC)
风速6节,风向多变
能见度10公里或以上
少量云层高于2000英尺
散云层高于7000英尺
成为
从 21日的 15点(UTC)到 21日的 16点(UTC)
风速9节,风向
能见度10公里或以上
少量云层高于2500英尺, 积雨云.
多云层高于5000英尺
附近有雷暴
成为
从 21日的 23点(UTC)到 21日的 24点(UTC)
风速6节,风向多变
能见度10公里或以上
散云层高于2200英尺

TAF: KHST 2019/2201 24012G20KT 9999 VCSH FEW035 SCT130 SCT200 QNH2982INS BECMG 2100/2101 VRB06KT 9999 NSW FEW020 SCT070 QNH2984INS BECMG 2115/2116 08009KT 9999 VCTS FEW025CB BKN050 QNH2986INS BECMG 2123/2124 VRB06KT 9999 NSW SCT022 QNH2989INS TX32/2019Z TN23/2111Z

超过4000个机场的气象观测和天气预报(METAR&TAF报告)。

可查询的气象台以黄色和红色小点在地图上表示。

将鼠标移到小点上方,可查看气象台名称。

然后点击查看天气观测和预报。

如需切换地图:点击带黑十字的绿色按钮放大地图;点击带横线的绿色按钮缩小地图;或者点击绿色箭头查看邻近地区的地图。


METAR-TAF: